sensor_id;sensor_type;location;lat;lon;timestamp;P1;durP1;ratioP1;P2;durP2;ratioP2
12631;SDS011;6381;45.748;12.106;2023-03-01T00:00:34;16.23;;;14.63;;
12631;SDS011;6381;45.748;12.106;2023-03-01T00:03:03;16.70;;;14.63;;
12631;SDS011;6381;45.748;12.106;2023-03-01T00:05:32;25.70;;;20.57;;
12631;SDS011;6381;45.748;12.106;2023-03-01T00:08:01;26.90;;;21.00;;
12631;SDS011;6381;45.748;12.106;2023-03-01T00:10:49;39.80;;;27.60;;
12631;SDS011;6381;45.748;12.106;2023-03-01T00:13:27;36.17;;;26.40;;
12631;SDS011;6381;45.748;12.106;2023-03-01T00:18:46;31.43;;;24.13;;
12631;SDS011;6381;45.748;12.106;2023-03-01T00:21:15;20.93;;;17.73;;
12631;SDS011;6381;45.748;12.106;2023-03-01T00:23:44;17.50;;;15.53;;
12631;SDS011;6381;45.748;12.106;2023-03-01T00:26:16;17.77;;;15.47;;
12631;SDS011;6381;45.748;12.106;2023-03-01T00:32:11;15.77;;;14.17;;
12631;SDS011;6381;45.748;12.106;2023-03-01T00:34:40;15.20;;;13.67;;
12631;SDS011;6381;45.748;12.106;2023-03-01T00:37:09;15.47;;;13.77;;
12631;SDS011;6381;45.748;12.106;2023-03-01T00:39:55;14.57;;;13.00;;
12631;SDS011;6381;45.748;12.106;2023-03-01T00:43:00;13.33;;;12.00;;
12631;SDS011;6381;45.748;12.106;2023-03-01T00:45:30;13.87;;;12.30;;
12631;SDS011;6381;45.748;12.106;2023-03-01T00:48:20;14.20;;;12.73;;
12631;SDS011;6381;45.748;12.106;2023-03-01T00:50:49;15.03;;;13.57;;
12631;SDS011;6381;45.748;12.106;2023-03-01T00:53:18;14.43;;;12.93;;
12631;SDS011;6381;45.748;12.106;2023-03-01T00:55:47;13.90;;;12.50;;
12631;SDS011;6381;45.748;12.106;2023-03-01T00:58:16;12.93;;;11.63;;
12631;SDS011;6381;45.748;12.106;2023-03-01T01:00:45;13.07;;;11.57;;
12631;SDS011;6381;45.748;12.106;2023-03-01T01:06:04;15.77;;;13.40;;
12631;SDS011;6381;45.748;12.106;2023-03-01T01:08:36;14.47;;;12.93;;
12631;SDS011;6381;45.748;12.106;2023-03-01T01:11:05;14.73;;;12.80;;
12631;SDS011;6381;45.748;12.106;2023-03-01T01:13:37;13.43;;;12.03;;
12631;SDS011;6381;45.748;12.106;2023-03-01T01:16:27;15.10;;;13.33;;
12631;SDS011;6381;45.748;12.106;2023-03-01T01:18:58;13.50;;;12.10;;
12631;SDS011;6381;45.748;12.106;2023-03-01T01:21:27;13.33;;;11.93;;
12631;SDS011;6381;45.748;12.106;2023-03-01T01:23:56;13.33;;;11.37;;
12631;SDS011;6381;45.748;12.106;2023-03-01T01:26:26;12.23;;;10.90;;
12631;SDS011;6381;45.748;12.106;2023-03-01T01:28:57;11.47;;;10.27;;
12631;SDS011;6381;45.748;12.106;2023-03-01T01:31:44;15.63;;;11.80;;
12631;SDS011;6381;45.748;12.106;2023-03-01T01:34:15;12.37;;;11.17;;
12631;SDS011;6381;45.748;12.106;2023-03-01T01:36:47;11.77;;;10.13;;
12631;SDS011;6381;45.748;12.106;2023-03-01T01:39:17;11.77;;;10.57;;
12631;SDS011;6381;45.748;12.106;2023-03-01T01:41:47;11.17;;;9.97;;
12631;SDS011;6381;45.748;12.106;2023-03-01T01:44:17;10.23;;;9.23;;
12631;SDS011;6381;45.748;12.106;2023-03-01T01:46:49;11.53;;;10.33;;
12631;SDS011;6381;45.748;12.106;2023-03-01T01:49:27;12.33;;;10.20;;
12631;SDS011;6381;45.748;12.106;2023-03-01T01:52:04;10.47;;;9.47;;
12631;SDS011;6381;45.748;12.106;2023-03-01T01:54:42;11.63;;;10.43;;
12631;SDS011;6381;45.748;12.106;2023-03-01T01:57:14;11.40;;;10.23;;
12631;SDS011;6381;45.748;12.106;2023-03-01T01:59:48;11.87;;;10.53;;
12631;SDS011;6381;45.748;12.106;2023-03-01T02:02:19;11.63;;;10.43;;
12631;SDS011;6381;45.748;12.106;2023-03-01T02:05:11;11.23;;;10.10;;
12631;SDS011;6381;45.748;12.106;2023-03-01T02:07:45;10.83;;;9.73;;
12631;SDS011;6381;45.748;12.106;2023-03-01T02:10:19;10.27;;;9.27;;
12631;SDS011;6381;45.748;12.106;2023-03-01T02:12:49;10.47;;;9.47;;
12631;SDS011;6381;45.748;12.106;2023-03-01T02:15:20;11.07;;;9.83;;
12631;SDS011;6381;45.748;12.106;2023-03-01T02:18:26;11.90;;;10.70;;
12631;SDS011;6381;45.748;12.106;2023-03-01T02:21:00;11.13;;;10.07;;
12631;SDS011;6381;45.748;12.106;2023-03-01T02:23:41;10.53;;;9.23;;
12631;SDS011;6381;45.748;12.106;2023-03-01T02:26:14;9.93;;;8.53;;
12631;SDS011;6381;45.748;12.106;2023-03-01T02:28:49;11.13;;;10.03;;
12631;SDS011;6381;45.748;12.106;2023-03-01T02:31:19;9.57;;;8.57;;
12631;SDS011;6381;45.748;12.106;2023-03-01T02:34:06;10.50;;;9.40;;
12631;SDS011;6381;45.748;12.106;2023-03-01T02:36:37;10.67;;;9.57;;
12631;SDS011;6381;45.748;12.106;2023-03-01T02:39:25;10.43;;;9.37;;
12631;SDS011;6381;45.748;12.106;2023-03-01T02:42:17;11.80;;;8.87;;
12631;SDS011;6381;45.748;12.106;2023-03-01T02:44:54;10.13;;;9.03;;
12631;SDS011;6381;45.748;12.106;2023-03-01T02:47:42;9.53;;;8.63;;
12631;SDS011;6381;45.748;12.106;2023-03-01T02:53:00;9.47;;;8.57;;
12631;SDS011;6381;45.748;12.106;2023-03-01T02:55:36;9.33;;;8.30;;
12631;SDS011;6381;45.748;12.106;2023-03-01T02:58:06;9.73;;;8.60;;
12631;SDS011;6381;45.748;12.106;2023-03-01T03:01:13;9.83;;;8.30;;
12631;SDS011;6381;45.748;12.106;2023-03-01T03:03:43;9.87;;;8.37;;
12631;SDS011;6381;45.748;12.106;2023-03-01T03:06:13;10.50;;;8.60;;
12631;SDS011;6381;45.748;12.106;2023-03-01T03:08:42;12.03;;;8.30;;
12631;SDS011;6381;45.748;12.106;2023-03-01T03:14:17;9.10;;;8.20;;
12631;SDS011;6381;45.748;12.106;2023-03-01T03:17:06;10.23;;;8.03;;
12631;SDS011;6381;45.748;12.106;2023-03-01T03:22:41;8.93;;;8.03;;
12631;SDS011;6381;45.748;12.106;2023-03-01T03:25:10;9.03;;;7.73;;
12631;SDS011;6381;45.748;12.106;2023-03-01T03:27:41;9.20;;;8.30;;
12631;SDS011;6381;45.748;12.106;2023-03-01T03:30:30;9.40;;;7.87;;
12631;SDS011;6381;45.748;12.106;2023-03-01T03:33:01;8.60;;;7.70;;
12631;SDS011;6381;45.748;12.106;2023-03-01T03:35:31;9.60;;;8.17;;
12631;SDS011;6381;45.748;12.106;2023-03-01T03:38:07;7.83;;;7.00;;
12631;SDS011;6381;45.748;12.106;2023-03-01T03:40:43;8.67;;;7.77;;
12631;SDS011;6381;45.748;12.106;2023-03-01T03:43:13;9.97;;;8.97;;
12631;SDS011;6381;45.748;12.106;2023-03-01T03:45:43;8.83;;;7.90;;
12631;SDS011;6381;45.748;12.106;2023-03-01T03:48:34;8.17;;;7.43;;
12631;SDS011;6381;45.748;12.106;2023-03-01T03:51:04;8.83;;;7.93;;
12631;SDS011;6381;45.748;12.106;2023-03-01T03:53:33;7.90;;;7.17;;
12631;SDS011;6381;45.748;12.106;2023-03-01T03:56:03;8.47;;;7.57;;
12631;SDS011;6381;45.748;12.106;2023-03-01T03:58:50;8.30;;;7.50;;
12631;SDS011;6381;45.748;12.106;2023-03-01T04:01:19;8.50;;;7.67;;
12631;SDS011;6381;45.748;12.106;2023-03-01T04:03:50;10.10;;;8.60;;
12631;SDS011;6381;45.748;12.106;2023-03-01T04:06:21;8.73;;;7.83;;
12631;SDS011;6381;45.748;12.106;2023-03-01T04:08:51;8.33;;;7.53;;
12631;SDS011;6381;45.748;12.106;2023-03-01T04:11:38;9.80;;;8.13;;
12631;SDS011;6381;45.748;12.106;2023-03-01T04:14:07;9.17;;;8.27;;
12631;SDS011;6381;45.748;12.106;2023-03-01T04:16:37;9.60;;;8.70;;
12631;SDS011;6381;45.748;12.106;2023-03-01T04:19:08;9.63;;;8.10;;
12631;SDS011;6381;45.748;12.106;2023-03-01T04:24:24;9.17;;;8.17;;
12631;SDS011;6381;45.748;12.106;2023-03-01T04:26:54;8.83;;;7.93;;
12631;SDS011;6381;45.748;12.106;2023-03-01T04:29:23;8.73;;;7.83;;
12631;SDS011;6381;45.748;12.106;2023-03-01T04:31:53;10.33;;;8.33;;
12631;SDS011;6381;45.748;12.106;2023-03-01T04:34:23;10.27;;;9.27;;
12631;SDS011;6381;45.748;12.106;2023-03-01T04:36:53;9.33;;;8.43;;
12631;SDS011;6381;45.748;12.106;2023-03-01T04:39:22;9.87;;;8.07;;
12631;SDS011;6381;45.748;12.106;2023-03-01T04:42:08;9.43;;;8.40;;
12631;SDS011;6381;45.748;12.106;2023-03-01T04:44:37;9.37;;;7.90;;
12631;SDS011;6381;45.748;12.106;2023-03-01T04:47:06;9.87;;;8.57;;
12631;SDS011;6381;45.748;12.106;2023-03-01T04:49:54;8.80;;;8.00;;
12631;SDS011;6381;45.748;12.106;2023-03-01T04:52:23;9.03;;;8.13;;
12631;SDS011;6381;45.748;12.106;2023-03-01T04:54:52;10.13;;;7.83;;
12631;SDS011;6381;45.748;12.106;2023-03-01T04:57:22;9.57;;;8.57;;
12631;SDS011;6381;45.748;12.106;2023-03-01T05:00:11;8.37;;;7.57;;
12631;SDS011;6381;45.748;12.106;2023-03-01T05:02:48;8.70;;;7.80;;
12631;SDS011;6381;45.748;12.106;2023-03-01T05:08:09;7.80;;;7.00;;
12631;SDS011;6381;45.748;12.106;2023-03-01T05:10:44;11.53;;;7.50;;
12631;SDS011;6381;45.748;12.106;2023-03-01T05:13:14;8.07;;;7.27;;
12631;SDS011;6381;45.748;12.106;2023-03-01T05:16:06;8.90;;;7.17;;
12631;SDS011;6381;45.748;12.106;2023-03-01T05:18:39;8.07;;;7.27;;
12631;SDS011;6381;45.748;12.106;2023-03-01T05:21:09;8.17;;;7.37;;
12631;SDS011;6381;45.748;12.106;2023-03-01T05:23:58;8.50;;;7.00;;
12631;SDS011;6381;45.748;12.106;2023-03-01T05:26:28;10.53;;;7.47;;
12631;SDS011;6381;45.748;12.106;2023-03-01T05:28:57;8.60;;;6.63;;
12631;SDS011;6381;45.748;12.106;2023-03-01T05:31:27;7.87;;;7.03;;
12631;SDS011;6381;45.748;12.106;2023-03-01T05:33:57;8.60;;;7.13;;
12631;SDS011;6381;45.748;12.106;2023-03-01T05:36:27;8.00;;;7.20;;
12631;SDS011;6381;45.748;12.106;2023-03-01T05:38:56;8.40;;;7.60;;
12631;SDS011;6381;45.748;12.106;2023-03-01T05:41:27;10.37;;;6.97;;
12631;SDS011;6381;45.748;12.106;2023-03-01T05:43:56;8.17;;;7.30;;
12631;SDS011;6381;45.748;12.106;2023-03-01T05:46:44;7.90;;;7.10;;
12631;SDS011;6381;45.748;12.106;2023-03-01T05:49:13;7.53;;;6.60;;
12631;SDS011;6381;45.748;12.106;2023-03-01T05:51:43;8.53;;;7.07;;
12631;SDS011;6381;45.748;12.106;2023-03-01T05:54:12;8.30;;;7.13;;
12631;SDS011;6381;45.748;12.106;2023-03-01T05:56:43;9.30;;;7.20;;
12631;SDS011;6381;45.748;12.106;2023-03-01T05:59:12;8.30;;;6.83;;
12631;SDS011;6381;45.748;12.106;2023-03-01T06:01:43;7.57;;;6.47;;
12631;SDS011;6381;45.748;12.106;2023-03-01T06:04:11;7.33;;;6.63;;
12631;SDS011;6381;45.748;12.106;2023-03-01T06:06:41;7.77;;;6.97;;
12631;SDS011;6381;45.748;12.106;2023-03-01T06:09:27;7.87;;;6.83;;
12631;SDS011;6381;45.748;12.106;2023-03-01T06:11:58;8.50;;;6.53;;
12631;SDS011;6381;45.748;12.106;2023-03-01T06:14:27;8.63;;;6.70;;
12631;SDS011;6381;45.748;12.106;2023-03-01T06:16:56;9.00;;;6.97;;
12631;SDS011;6381;45.748;12.106;2023-03-01T06:19:26;9.13;;;7.43;;
12631;SDS011;6381;45.748;12.106;2023-03-01T06:22:12;9.40;;;6.73;;
12631;SDS011;6381;45.748;12.106;2023-03-01T06:24:41;7.90;;;7.10;;
12631;SDS011;6381;45.748;12.106;2023-03-01T06:27:12;8.67;;;7.60;;
12631;SDS011;6381;45.748;12.106;2023-03-01T06:29:41;8.87;;;7.90;;
12631;SDS011;6381;45.748;12.106;2023-03-01T06:32:29;11.60;;;9.30;;
12631;SDS011;6381;45.748;12.106;2023-03-01T06:35:16;11.57;;;9.87;;
12631;SDS011;6381;45.748;12.106;2023-03-01T06:37:47;9.97;;;8.63;;
12631;SDS011;6381;45.748;12.106;2023-03-01T06:40:16;11.90;;;8.60;;
12631;SDS011;6381;45.748;12.106;2023-03-01T06:42:49;8.13;;;7.33;;
12631;SDS011;6381;45.748;12.106;2023-03-01T06:48:07;8.60;;;6.67;;
12631;SDS011;6381;45.748;12.106;2023-03-01T06:50:36;10.63;;;7.30;;
12631;SDS011;6381;45.748;12.106;2023-03-01T06:55:56;10.33;;;6.90;;
12631;SDS011;6381;45.748;12.106;2023-03-01T06:58:29;10.33;;;6.90;;
12631;SDS011;6381;45.748;12.106;2023-03-01T07:00:58;9.47;;;6.73;;
12631;SDS011;6381;45.748;12.106;2023-03-01T07:03:27;9.20;;;6.90;;
12631;SDS011;6381;45.748;12.106;2023-03-01T07:05:56;9.83;;;7.27;;
12631;SDS011;6381;45.748;12.106;2023-03-01T07:08:25;7.23;;;6.50;;
12631;SDS011;6381;45.748;12.106;2023-03-01T07:10:55;8.77;;;7.37;;
12631;SDS011;6381;45.748;12.106;2023-03-01T07:16:14;8.67;;;6.87;;
12631;SDS011;6381;45.748;12.106;2023-03-01T07:18:43;8.40;;;6.77;;
12631;SDS011;6381;45.748;12.106;2023-03-01T07:21:13;7.67;;;6.10;;
12631;SDS011;6381;45.748;12.106;2023-03-01T07:23:43;8.73;;;6.60;;
12631;SDS011;6381;45.748;12.106;2023-03-01T07:26:15;7.80;;;7.00;;
12631;SDS011;6381;45.748;12.106;2023-03-01T07:28:46;7.50;;;6.70;;
12631;SDS011;6381;45.748;12.106;2023-03-01T07:31:15;7.87;;;6.97;;
12631;SDS011;6381;45.748;12.106;2023-03-01T07:33:45;7.70;;;6.80;;
12631;SDS011;6381;45.748;12.106;2023-03-01T07:36:14;6.27;;;5.67;;
12631;SDS011;6381;45.748;12.106;2023-03-01T07:38:44;8.97;;;6.37;;
12631;SDS011;6381;45.748;12.106;2023-03-01T07:41:32;7.70;;;6.43;;
12631;SDS011;6381;45.748;12.106;2023-03-01T07:44:03;10.53;;;6.53;;
12631;SDS011;6381;45.748;12.106;2023-03-01T07:46:50;6.93;;;6.23;;
12631;SDS011;6381;45.748;12.106;2023-03-01T07:49:24;10.23;;;6.90;;
12631;SDS011;6381;45.748;12.106;2023-03-01T07:51:54;10.60;;;8.27;;
12631;SDS011;6381;45.748;12.106;2023-03-01T07:54:24;9.67;;;8.77;;
12631;SDS011;6381;45.748;12.106;2023-03-01T07:57:11;8.07;;;7.27;;
12631;SDS011;6381;45.748;12.106;2023-03-01T07:59:41;10.40;;;7.03;;
12631;SDS011;6381;45.748;12.106;2023-03-01T08:02:11;7.67;;;6.73;;
12631;SDS011;6381;45.748;12.106;2023-03-01T08:04:41;8.97;;;7.30;;
12631;SDS011;6381;45.748;12.106;2023-03-01T08:07:11;8.33;;;7.40;;
12631;SDS011;6381;45.748;12.106;2023-03-01T08:09:58;8.47;;;6.60;;
12631;SDS011;6381;45.748;12.106;2023-03-01T08:12:27;8.73;;;6.37;;
12631;SDS011;6381;45.748;12.106;2023-03-01T08:14:58;9.50;;;6.70;;
12631;SDS011;6381;45.748;12.106;2023-03-01T08:17:46;10.10;;;7.77;;
12631;SDS011;6381;45.748;12.106;2023-03-01T08:20:17;10.43;;;8.80;;
12631;SDS011;6381;45.748;12.106;2023-03-01T08:22:46;8.30;;;6.60;;
12631;SDS011;6381;45.748;12.106;2023-03-01T08:25:15;10.83;;;6.60;;
12631;SDS011;6381;45.748;12.106;2023-03-01T08:27:45;7.33;;;6.07;;
12631;SDS011;6381;45.748;12.106;2023-03-01T08:30:16;8.00;;;6.13;;
12631;SDS011;6381;45.748;12.106;2023-03-01T08:32:45;6.60;;;5.87;;
12631;SDS011;6381;45.748;12.106;2023-03-01T08:35:15;7.90;;;6.20;;
12631;SDS011;6381;45.748;12.106;2023-03-01T08:37:44;7.60;;;6.30;;
12631;SDS011;6381;45.748;12.106;2023-03-01T08:43:01;7.47;;;6.17;;
12631;SDS011;6381;45.748;12.106;2023-03-01T08:45:32;6.87;;;6.03;;
12631;SDS011;6381;45.748;12.106;2023-03-01T08:48:01;8.23;;;6.47;;
12631;SDS011;6381;45.748;12.106;2023-03-01T08:50:30;7.47;;;6.67;;
12631;SDS011;6381;45.748;12.106;2023-03-01T08:52:59;8.10;;;6.20;;
12631;SDS011;6381;45.748;12.106;2023-03-01T08:55:47;8.20;;;6.87;;
12631;SDS011;6381;45.748;12.106;2023-03-01T08:58:35;8.03;;;6.87;;
12631;SDS011;6381;45.748;12.106;2023-03-01T09:01:08;11.03;;;7.13;;
12631;SDS011;6381;45.748;12.106;2023-03-01T09:03:38;14.10;;;7.97;;
12631;SDS011;6381;45.748;12.106;2023-03-01T09:06:25;8.57;;;6.97;;
12631;SDS011;6381;45.748;12.106;2023-03-01T09:09:30;12.40;;;6.67;;
12631;SDS011;6381;45.748;12.106;2023-03-01T09:11:59;10.67;;;6.13;;
12631;SDS011;6381;45.748;12.106;2023-03-01T09:14:28;7.27;;;6.57;;
12631;SDS011;6381;45.748;12.106;2023-03-01T09:16:59;8.67;;;6.67;;
12631;SDS011;6381;45.748;12.106;2023-03-01T09:19:29;10.53;;;6.87;;
12631;SDS011;6381;45.748;12.106;2023-03-01T09:21:59;8.03;;;6.27;;
12631;SDS011;6381;45.748;12.106;2023-03-01T09:24:28;9.93;;;6.80;;
12631;SDS011;6381;45.748;12.106;2023-03-01T09:26:57;7.60;;;6.40;;
12631;SDS011;6381;45.748;12.106;2023-03-01T09:29:26;6.53;;;5.93;;
12631;SDS011;6381;45.748;12.106;2023-03-01T09:31:55;9.00;;;5.90;;
12631;SDS011;6381;45.748;12.106;2023-03-01T09:34:26;7.97;;;6.23;;
12631;SDS011;6381;45.748;12.106;2023-03-01T09:36:57;9.30;;;6.20;;
12631;SDS011;6381;45.748;12.106;2023-03-01T09:39:26;8.57;;;5.67;;
12631;SDS011;6381;45.748;12.106;2023-03-01T09:41:57;6.97;;;5.50;;
12631;SDS011;6381;45.748;12.106;2023-03-01T09:44:31;6.70;;;6.00;;
12631;SDS011;6381;45.748;12.106;2023-03-01T09:47:08;7.30;;;5.77;;
12631;SDS011;6381;45.748;12.106;2023-03-01T09:49:42;8.17;;;6.47;;
12631;SDS011;6381;45.748;12.106;2023-03-01T09:52:18;8.43;;;5.77;;
12631;SDS011;6381;45.748;12.106;2023-03-01T09:54:54;11.23;;;6.40;;
12631;SDS011;6381;45.748;12.106;2023-03-01T10:00:36;8.87;;;5.73;;
12631;SDS011;6381;45.748;12.106;2023-03-01T10:03:12;8.77;;;5.97;;
12631;SDS011;6381;45.748;12.106;2023-03-01T10:05:50;8.80;;;5.53;;
12631;SDS011;6381;45.748;12.106;2023-03-01T10:08:35;8.20;;;5.67;;
12631;SDS011;6381;45.748;12.106;2023-03-01T10:11:16;10.43;;;6.47;;
12631;SDS011;6381;45.748;12.106;2023-03-01T10:13:51;7.93;;;6.00;;
12631;SDS011;6381;45.748;12.106;2023-03-01T10:16:43;8.37;;;6.10;;
12631;SDS011;6381;45.748;12.106;2023-03-01T10:19:17;6.93;;;6.00;;
12631;SDS011;6381;45.748;12.106;2023-03-01T10:22:11;7.80;;;6.13;;
12631;SDS011;6381;45.748;12.106;2023-03-01T10:24:44;11.50;;;5.80;;
12631;SDS011;6381;45.748;12.106;2023-03-01T10:27:16;9.30;;;6.70;;
12631;SDS011;6381;45.748;12.106;2023-03-01T10:29:48;9.57;;;6.90;;
12631;SDS011;6381;45.748;12.106;2023-03-01T10:32:41;9.20;;;5.83;;
12631;SDS011;6381;45.748;12.106;2023-03-01T10:35:18;12.10;;;10.37;;
12631;SDS011;6381;45.748;12.106;2023-03-01T10:38:02;14.47;;;7.37;;
12631;SDS011;6381;45.748;12.106;2023-03-01T10:40:33;10.93;;;7.63;;
12631;SDS011;6381;45.748;12.106;2023-03-01T10:43:04;10.70;;;8.00;;
12631;SDS011;6381;45.748;12.106;2023-03-01T10:45:34;10.53;;;7.40;;
12631;SDS011;6381;45.748;12.106;2023-03-01T10:48:12;12.87;;;7.10;;
12631;SDS011;6381;45.748;12.106;2023-03-01T10:50:43;9.10;;;6.00;;
12631;SDS011;6381;45.748;12.106;2023-03-01T10:53:20;8.50;;;5.43;;
12631;SDS011;6381;45.748;12.106;2023-03-01T10:55:57;14.13;;;5.97;;
12631;SDS011;6381;45.748;12.106;2023-03-01T10:58:28;18.40;;;6.10;;
12631;SDS011;6381;45.748;12.106;2023-03-01T11:00:59;8.63;;;6.47;;
12631;SDS011;6381;45.748;12.106;2023-03-01T11:03:30;12.03;;;9.27;;
12631;SDS011;6381;45.748;12.106;2023-03-01T11:06:02;12.30;;;7.50;;
12631;SDS011;6381;45.748;12.106;2023-03-01T11:11:39;15.67;;;6.53;;
12631;SDS011;6381;45.748;12.106;2023-03-01T11:14:13;10.43;;;6.53;;
12631;SDS011;6381;45.748;12.106;2023-03-01T11:17:02;16.70;;;9.00;;
12631;SDS011;6381;45.748;12.106;2023-03-01T11:19:32;18.73;;;6.40;;
12631;SDS011;6381;45.748;12.106;2023-03-01T11:22:03;21.47;;;5.73;;
12631;SDS011;6381;45.748;12.106;2023-03-01T11:24:40;36.80;;;7.17;;
12631;SDS011;6381;45.748;12.106;2023-03-01T11:27:16;50.93;;;9.10;;
12631;SDS011;6381;45.748;12.106;2023-03-01T11:32:35;9.67;;;5.27;;
12631;SDS011;6381;45.748;12.106;2023-03-01T11:35:08;15.73;;;5.50;;
12631;SDS011;6381;45.748;12.106;2023-03-01T11:37:44;14.87;;;5.63;;
12631;SDS011;6381;45.748;12.106;2023-03-01T11:40:26;18.10;;;4.97;;
12631;SDS011;6381;45.748;12.106;2023-03-01T11:43:19;11.77;;;5.70;;
12631;SDS011;6381;45.748;12.106;2023-03-01T11:46:02;9.07;;;5.47;;
12631;SDS011;6381;45.748;12.106;2023-03-01T11:48:59;10.23;;;5.30;;
12631;SDS011;6381;45.748;12.106;2023-03-01T11:51:41;12.73;;;5.50;;
12631;SDS011;6381;45.748;12.106;2023-03-01T11:54:39;15.83;;;5.23;;
12631;SDS011;6381;45.748;12.106;2023-03-01T11:57:33;15.20;;;5.70;;
12631;SDS011;6381;45.748;12.106;2023-03-01T12:00:17;9.70;;;5.40;;
12631;SDS011;6381;45.748;12.106;2023-03-01T12:03:16;13.63;;;5.60;;
12631;SDS011;6381;45.748;12.106;2023-03-01T12:09:02;9.10;;;5.30;;
12631;SDS011;6381;45.748;12.106;2023-03-01T12:14:55;13.17;;;6.10;;
12631;SDS011;6381;45.748;12.106;2023-03-01T12:17:56;12.60;;;5.90;;
12631;SDS011;6381;45.748;12.106;2023-03-01T12:20:45;9.03;;;6.00;;
12631;SDS011;6381;45.748;12.106;2023-03-01T12:23:38;8.20;;;5.90;;
12631;SDS011;6381;45.748;12.106;2023-03-01T12:26:31;9.07;;;5.83;;
12631;SDS011;6381;45.748;12.106;2023-03-01T12:29:08;8.13;;;5.27;;
12631;SDS011;6381;45.748;12.106;2023-03-01T12:32:06;9.30;;;5.67;;
12631;SDS011;6381;45.748;12.106;2023-03-01T12:34:48;16.07;;;6.17;;
12631;SDS011;6381;45.748;12.106;2023-03-01T12:37:25;11.57;;;6.40;;
12631;SDS011;6381;45.748;12.106;2023-03-01T12:40:16;12.50;;;5.83;;
12631;SDS011;6381;45.748;12.106;2023-03-01T12:42:59;12.17;;;5.80;;
12631;SDS011;6381;45.748;12.106;2023-03-01T12:45:50;9.57;;;6.00;;
12631;SDS011;6381;45.748;12.106;2023-03-01T12:48:43;9.67;;;5.83;;
12631;SDS011;6381;45.748;12.106;2023-03-01T12:51:14;11.63;;;6.63;;
12631;SDS011;6381;45.748;12.106;2023-03-01T12:54:01;16.93;;;6.20;;
12631;SDS011;6381;45.748;12.106;2023-03-01T12:56:51;11.23;;;6.10;;
12631;SDS011;6381;45.748;12.106;2023-03-01T13:02:26;15.50;;;6.47;;
12631;SDS011;6381;45.748;12.106;2023-03-01T13:05:13;10.60;;;5.87;;
12631;SDS011;6381;45.748;12.106;2023-03-01T13:07:54;15.60;;;6.27;;
12631;SDS011;6381;45.748;12.106;2023-03-01T13:10:31;7.67;;;5.97;;
12631;SDS011;6381;45.748;12.106;2023-03-01T13:13:13;10.70;;;6.60;;
12631;SDS011;6381;45.748;12.106;2023-03-01T13:15:48;9.67;;;6.63;;
12631;SDS011;6381;45.748;12.106;2023-03-01T13:18:29;11.80;;;6.73;;
12631;SDS011;6381;45.748;12.106;2023-03-01T13:21:30;7.27;;;6.43;;
12631;SDS011;6381;45.748;12.106;2023-03-01T13:24:00;11.23;;;7.67;;
12631;SDS011;6381;45.748;12.106;2023-03-01T13:26:30;10.70;;;8.03;;
12631;SDS011;6381;45.748;12.106;2023-03-01T13:28:59;11.27;;;7.27;;
12631;SDS011;6381;45.748;12.106;2023-03-01T13:34:44;8.70;;;6.77;;
12631;SDS011;6381;45.748;12.106;2023-03-01T13:46:24;12.93;;;6.70;;
12631;SDS011;6381;45.748;12.106;2023-03-01T13:48:54;9.80;;;6.30;;
12631;SDS011;6381;45.748;12.106;2023-03-01T13:51:26;10.77;;;7.13;;
12631;SDS011;6381;45.748;12.106;2023-03-01T13:53:56;22.03;;;14.97;;
12631;SDS011;6381;45.748;12.106;2023-03-01T13:56:44;12.83;;;10.20;;
12631;SDS011;6381;45.748;12.106;2023-03-01T13:59:14;11.60;;;10.50;;
12631;SDS011;6381;45.748;12.106;2023-03-01T14:01:51;12.37;;;8.20;;
12631;SDS011;6381;45.748;12.106;2023-03-01T14:04:21;9.53;;;8.20;;
12631;SDS011;6381;45.748;12.106;2023-03-01T14:09:41;18.03;;;14.87;;
12631;SDS011;6381;45.748;12.106;2023-03-01T14:12:15;15.83;;;11.03;;
12631;SDS011;6381;45.748;12.106;2023-03-01T14:14:56;14.33;;;9.90;;
12631;SDS011;6381;45.748;12.106;2023-03-01T14:17:51;13.63;;;9.20;;
12631;SDS011;6381;45.748;12.106;2023-03-01T14:20:22;12.27;;;8.73;;
12631;SDS011;6381;45.748;12.106;2023-03-01T14:22:52;13.73;;;10.30;;
12631;SDS011;6381;45.748;12.106;2023-03-01T14:25:24;11.73;;;9.03;;
12631;SDS011;6381;45.748;12.106;2023-03-01T14:27:58;10.70;;;7.37;;
12631;SDS011;6381;45.748;12.106;2023-03-01T14:30:34;13.17;;;10.40;;
12631;SDS011;6381;45.748;12.106;2023-03-01T14:35:59;14.57;;;9.03;;
12631;SDS011;6381;45.748;12.106;2023-03-01T14:38:34;15.93;;;9.57;;
12631;SDS011;6381;45.748;12.106;2023-03-01T14:41:05;10.13;;;6.73;;
12631;SDS011;6381;45.748;12.106;2023-03-01T14:43:37;8.07;;;6.60;;
12631;SDS011;6381;45.748;12.106;2023-03-01T14:46:15;13.40;;;6.20;;
12631;SDS011;6381;45.748;12.106;2023-03-01T14:48:48;8.60;;;6.50;;
12631;SDS011;6381;45.748;12.106;2023-03-01T14:51:38;11.27;;;7.13;;
12631;SDS011;6381;45.748;12.106;2023-03-01T14:54:18;12.83;;;8.67;;
12631;SDS011;6381;45.748;12.106;2023-03-01T14:56:48;12.10;;;7.80;;
12631;SDS011;6381;45.748;12.106;2023-03-01T14:59:19;12.80;;;7.43;;
12631;SDS011;6381;45.748;12.106;2023-03-01T15:02:08;10.03;;;7.00;;
12631;SDS011;6381;45.748;12.106;2023-03-01T15:04:44;10.53;;;6.77;;
12631;SDS011;6381;45.748;12.106;2023-03-01T15:07:15;9.27;;;7.13;;
12631;SDS011;6381;45.748;12.106;2023-03-01T15:09:45;8.60;;;7.07;;
12631;SDS011;6381;45.748;12.106;2023-03-01T15:12:25;7.63;;;5.97;;
12631;SDS011;6381;45.748;12.106;2023-03-01T15:18:06;12.03;;;6.07;;
12631;SDS011;6381;45.748;12.106;2023-03-01T15:20:44;9.67;;;6.03;;
12631;SDS011;6381;45.748;12.106;2023-03-01T15:23:19;9.73;;;6.20;;
12631;SDS011;6381;45.748;12.106;2023-03-01T15:25:51;8.10;;;6.50;;
12631;SDS011;6381;45.748;12.106;2023-03-01T15:31:18;11.13;;;5.73;;
12631;SDS011;6381;45.748;12.106;2023-03-01T15:33:51;9.53;;;6.00;;
12631;SDS011;6381;45.748;12.106;2023-03-01T15:36:39;9.67;;;6.70;;
12631;SDS011;6381;45.748;12.106;2023-03-01T15:39:28;9.37;;;5.87;;
12631;SDS011;6381;45.748;12.106;2023-03-01T15:42:35;7.57;;;5.00;;
12631;SDS011;6381;45.748;12.106;2023-03-01T15:47:55;11.87;;;5.40;;
12631;SDS011;6381;45.748;12.106;2023-03-01T15:50:29;6.33;;;4.20;;
12631;SDS011;6381;45.748;12.106;2023-03-01T15:53:00;6.83;;;3.80;;
12631;SDS011;6381;45.748;12.106;2023-03-01T15:55:31;8.53;;;4.23;;
12631;SDS011;6381;45.748;12.106;2023-03-01T16:00:50;4.80;;;3.80;;
12631;SDS011;6381;45.748;12.106;2023-03-01T16:03:27;4.67;;;3.93;;
12631;SDS011;6381;45.748;12.106;2023-03-01T16:08:44;6.10;;;4.47;;
12631;SDS011;6381;45.748;12.106;2023-03-01T16:11:16;6.53;;;4.80;;
12631;SDS011;6381;45.748;12.106;2023-03-01T16:13:47;6.77;;;5.03;;
12631;SDS011;6381;45.748;12.106;2023-03-01T16:16:16;9.13;;;5.57;;
12631;SDS011;6381;45.748;12.106;2023-03-01T16:19:04;7.13;;;6.37;;
12631;SDS011;6381;45.748;12.106;2023-03-01T16:21:33;7.87;;;6.00;;
12631;SDS011;6381;45.748;12.106;2023-03-01T16:29:39;7.77;;;6.93;;
12631;SDS011;6381;45.748;12.106;2023-03-01T16:32:08;8.93;;;6.90;;
12631;SDS011;6381;45.748;12.106;2023-03-01T16:34:37;6.90;;;6.20;;
12631;SDS011;6381;45.748;12.106;2023-03-01T16:37:06;7.83;;;6.80;;
12631;SDS011;6381;45.748;12.106;2023-03-01T16:39:37;9.47;;;7.50;;
12631;SDS011;6381;45.748;12.106;2023-03-01T16:42:06;11.60;;;8.90;;
12631;SDS011;6381;45.748;12.106;2023-03-01T16:44:58;14.50;;;9.53;;
12631;SDS011;6381;45.748;12.106;2023-03-01T16:47:31;11.00;;;9.37;;
12631;SDS011;6381;45.748;12.106;2023-03-01T16:50:02;8.90;;;7.30;;
12631;SDS011;6381;45.748;12.106;2023-03-01T16:52:31;9.97;;;7.40;;
12631;SDS011;6381;45.748;12.106;2023-03-01T16:55:20;7.50;;;6.80;;
12631;SDS011;6381;45.748;12.106;2023-03-01T16:57:50;7.97;;;7.17;;
12631;SDS011;6381;45.748;12.106;2023-03-01T17:00:21;9.47;;;7.13;;